Time,TemperatureF,DewpointF,PressureIn,WindDirection,WindDirectionDegrees,WindSpeedMPH,WindSpeedGustMPH,Humidity,HourlyPrecipIn,Conditions,Clouds,dailyrainin,SoftwareType,DateUTC
2013-06-14 00:14:00,80.9,74.0,29.93,West,268,1.0,-999.0,80,-99.99,,,0.00,weatherlink.com 1.10,2013-06-14 04:14:00,
2013-06-14 00:29:00,80.6,74.0,29.93,West,268,2.0,-999.0,81,-99.99,,,0.00,weatherlink.com 1.10,2013-06-14 04:29:00,
2013-06-14 00:44:00,80.3,74.0,29.93,West,264,5.0,-999.0,82,-99.99,,,0.00,weatherlink.com 1.10,2013-06-14 04:44:00,
2013-06-14 00:59:00,80.1,75.0,29.92,West,263,1.0,-999.0,83,-99.99,,,0.00,weatherlink.com 1.10,2013-06-14 04:59:00,
2013-06-14 01:14:00,79.7,74.0,29.92,West,263,2.0,-999.0,83,-99.99,,,0.00,weatherlink.com 1.10,2013-06-14 05:14:00,
2013-06-14 01:29:00,79.5,74.0,29.92,WSW,256,0.0,-999.0,84,-99.99,,,0.00,weatherlink.com 1.10,2013-06-14 05:29:00,
2013-06-14 01:44:00,79.2,74.0,29.91,NW,312,5.0,-999.0,85,-99.99,,,0.00,weatherlink.com 1.10,2013-06-14 05:44:00,
2013-06-14 01:59:00,79.1,75.0,29.91,West,269,4.0,-999.0,86,-99.99,,,0.00,weatherlink.com 1.10,2013-06-14 05:59:00,
2013-06-14 02:14:00,79.1,75.0,29.90,West,259,5.0,-999.0,87,-99.99,,,0.00,weatherlink.com 1.10,2013-06-14 06:14:00,
2013-06-14 02:29:00,78.9,75.0,29.90,West,266,1.0,-999.0,87,-99.99,,,0.00,weatherlink.com 1.10,2013-06-14 06:29:00,
2013-06-14 02:44:00,78.6,75.0,29.89,WSW,244,1.0,-999.0,87,-99.99,,,0.00,weatherlink.com 1.10,2013-06-14 06:44:00,
2013-06-14 02:59:00,78.3,74.0,29.88,WSW,245,0.0,-999.0,87,-99.99,,,0.00,weatherlink.com 1.10,2013-06-14 06:59:00,
2013-06-14 03:14:00,78.2,74.0,29.88,WSW,250,4.0,-999.0,87,-99.99,,,0.00,weatherlink.com 1.10,2013-06-14 07:14:00,
2013-06-14 03:29:00,78.2,74.0,29.88,West,267,6.0,-999.0,87,-99.99,,,0.00,weatherlink.com 1.10,2013-06-14 07:29:00,
2013-06-14 03:44:00,77.9,74.0,29.88,WSW,250,0.0,-999.0,88,-99.99,,,0.00,weatherlink.com 1.10,2013-06-14 07:44:00,
2013-06-14 03:59:00,77.8,74.0,29.89,West,267,3.0,-999.0,88,-99.99,,,0.00,weatherlink.com 1.10,2013-06-14 07:59:00,
2013-06-14 04:14:00,77.6,74.0,29.88,WSW,246,2.0,-999.0,88,-99.99,,,0.00,weatherlink.com 1.10,2013-06-14 08:14:00,
2013-06-14 04:29:00,77.5,74.0,29.88,WSW,256,0.0,-999.0,88,-99.99,,,0.00,weatherlink.com 1.10,2013-06-14 08:29:00,
2013-06-14 04:44:00,77.4,74.0,29.88,WSW,248,2.0,-999.0,89,-99.99,,,0.00,weatherlink.com 1.10,2013-06-14 08:44:00,
2013-06-14 04:59:00,77.5,74.0,29.88,WSW,252,3.0,-999.0,89,-99.99,,,0.00,weatherlink.com 1.10,2013-06-14 08:59:00,
2013-06-14 05:14:00,77.5,74.0,29.88,WSW,256,5.0,-999.0,89,-99.99,,,0.00,weatherlink.com 1.10,2013-06-14 09:14:00,
2013-06-14 05:29:00,77.5,74.0,29.88,WSW,252,1.0,-999.0,89,-99.99,,,0.00,weatherlink.com 1.10,2013-06-14 09:29:00,
2013-06-14 05:44:00,77.2,74.0,29.88,West,267,7.0,-999.0,89,-99.99,,,0.00,weatherlink.com 1.10,2013-06-14 09:44:00,
2013-06-14 05:59:00,77.3,74.0,29.89,West,264,7.0,-999.0,89,-99.99,,,0.00,weatherlink.com 1.10,2013-06-14 09:59:00,
2013-06-14 06:14:00,77.3,74.0,29.89,WSW,252,3.0,-999.0,89,-99.99,,,0.00,weatherlink.com 1.10,2013-06-14 10:14:00,
2013-06-14 06:29:00,77.4,74.0,29.89,West,277,4.0,-999.0,89,-99.99,,,0.00,weatherlink.com 1.10,2013-06-14 10:29:00,
2013-06-14 06:44:00,77.4,74.0,29.88,WSW,245,0.0,-999.0,89,-99.99,,,0.00,weatherlink.com 1.10,2013-06-14 10:44:00,
2013-06-14 06:59:00,77.5,74.0,29.89,WSW,257,5.0,-999.0,88,-99.99,,,0.00,weatherlink.com 1.10,2013-06-14 10:59:00,
2013-06-14 07:14:00,77.7,74.0,29.89,West,261,2.0,-999.0,88,-99.99,,,0.00,weatherlink.com 1.10,2013-06-14 11:14:00,
2013-06-14 07:29:00,78.3,74.0,29.89,WSW,252,2.0,-999.0,87,-99.99,,,0.00,weatherlink.com 1.10,2013-06-14 11:29:00,
2013-06-14 07:44:00,79.0,75.0,29.89,WSW,252,2.0,-999.0,86,-99.99,,,0.00,weatherlink.com 1.10,2013-06-14 11:44:00,
2013-06-14 07:59:00,79.2,74.0,29.89,SW,220,2.0,-999.0,85,-99.99,,,0.00,weatherlink.com 1.10,2013-06-14 11:59:00,
2013-06-14 08:14:00,79.4,75.0,29.89,West,270,7.0,-999.0,85,-99.99,,,0.00,weatherlink.com 1.10,2013-06-14 12:14:00,
2013-06-14 08:29:00,79.6,74.0,29.90,WSW,257,3.0,-999.0,84,-99.99,,,0.00,weatherlink.com 1.10,2013-06-14 12:29:00,
2013-06-14 08:44:00,80.6,75.0,29.91,WSW,239,4.0,-999.0,83,-99.99,,,0.00,weatherlink.com 1.10,2013-06-14 12:44:00,
2013-06-14 08:59:00,81.5,75.0,29.91,WSW,253,6.0,-999.0,80,-99.99,,,0.00,weatherlink.com 1.10,2013-06-14 12:59:00,
2013-06-14 09:15:00,81.9,75.0,29.91,West,261,2.0,-999.0,80,-99.99,,,0.00,weatherlink.com 1.10,2013-06-14 13:15:00,
2013-06-14 09:29:00,82.7,75.0,29.91,West,259,5.0,-999.0,78,-99.99,,,0.00,weatherlink.com 1.10,2013-06-14 13:29:00,
2013-06-14 09:44:00,83.6,75.0,29.92,West,281,4.0,-999.0,76,-99.99,,,0.00,weatherlink.com 1.10,2013-06-14 13:44:00,
2013-06-14 09:59:00,84.1,75.0,29.91,West,261,6.0,-999.0,73,-99.99,,,0.00,weatherlink.com 1.10,2013-06-14 13:59:00,
2013-06-14 10:15:00,84.8,74.0,29.91,NNW,330,8.0,-999.0,70,-99.99,,,0.00,weatherlink.com 1.10,2013-06-14 14:15:00,
2013-06-14 10:30:00,85.3,75.0,29.90,WNW,284,3.0,-999.0,70,-99.99,,,0.00,weatherlink.com 1.10,2013-06-14 14:30:00,
2013-06-14 10:45:00,86.3,74.0,29.91,West,263,4.0,-999.0,67,-99.99,,,0.00,weatherlink.com 1.10,2013-06-14 14:45:00,
2013-06-14 11:00:00,87.0,74.0,29.91,NW,314,3.0,-999.0,66,-99.99,,,0.00,weatherlink.com 1.10,2013-06-14 15:00:00,
2013-06-14 11:15:00,88.0,74.0,29.91,West,269,4.0,-999.0,64,-99.99,,,0.00,weatherlink.com 1.10,2013-06-14 15:15:00,
2013-06-14 11:30:00,87.4,72.0,29.92,WSW,245,4.0,-999.0,61,-99.99,,,0.00,weatherlink.com 1.10,2013-06-14 15:30:00,
2013-06-14 11:45:00,88.5,74.0,29.93,West,269,1.0,-999.0,62,-99.99,,,0.00,weatherlink.com 1.10,2013-06-14 15:45:00,
2013-06-14 12:00:00,88.7,74.0,29.91,NW,318,3.0,-999.0,61,-99.99,,,0.00,weatherlink.com 1.10,2013-06-14 16:00:00,
2013-06-14 12:15:00,89.0,73.0,29.91,SW,236,8.0,-999.0,60,-99.99,,,0.00,weatherlink.com 1.10,2013-06-14 16:15:00,
2013-06-14 12:30:00,89.9,73.0,29.91,West,265,2.0,-999.0,57,-99.99,,,0.00,weatherlink.com 1.10,2013-06-14 16:30:00,
2013-06-14 12:45:00,90.2,73.0,29.90,WSW,257,2.0,-999.0,57,-99.99,,,0.00,weatherlink.com 1.10,2013-06-14 16:45:00,
2013-06-14 13:00:00,90.3,73.0,29.90,WSW,248,8.0,-999.0,57,-99.99,,,0.00,weatherlink.com 1.10,2013-06-14 17:00:00,
2013-06-14 13:15:00,90.3,74.0,29.90,WSW,250,9.0,-999.0,58,-99.99,,,0.00,weatherlink.com 1.10,2013-06-14 17:15:00,
2013-06-14 13:30:00,91.4,72.0,29.89,WSW,254,2.0,-999.0,53,-99.99,,,0.00,weatherlink.com 1.10,2013-06-14 17:30:00,
2013-06-14 13:45:00,91.3,73.0,29.89,West,265,5.0,-999.0,55,-99.99,,,0.00,weatherlink.com 1.10,2013-06-14 17:45:00,
2013-06-14 14:00:00,92.5,71.0,29.89,NW,319,4.0,-999.0,50,-99.99,,,0.00,weatherlink.com 1.10,2013-06-14 18:00:00,
2013-06-14 14:15:00,92.0,71.0,29.88,WSW,240,4.0,-999.0,51,-99.99,,,0.00,weatherlink.com 1.10,2013-06-14 18:15:00,
2013-06-14 14:30:00,92.5,71.0,29.88,West,273,8.0,-999.0,50,-99.99,,,0.00,weatherlink.com 1.10,2013-06-14 18:30:00,
2013-06-14 14:45:00,90.7,70.0,29.87,SW,221,7.0,-999.0,51,-99.99,,,0.00,weatherlink.com 1.10,2013-06-14 18:45:00,
2013-06-14 15:00:00,90.0,71.0,29.88,WNW,288,2.0,-999.0,54,-99.99,,,0.00,weatherlink.com 1.10,2013-06-14 19:00:00,
2013-06-14 15:15:00,89.5,71.0,29.86,WSW,257,5.0,-999.0,55,-99.99,,,0.00,weatherlink.com 1.10,2013-06-14 19:15:00,
2013-06-14 15:30:00,90.0,72.0,29.86,West,272,2.0,-999.0,55,-99.99,,,0.00,weatherlink.com 1.10,2013-06-14 19:30:00,
2013-06-14 15:45:00,91.0,73.0,29.87,West,271,2.0,-999.0,55,-99.99,,,0.00,weatherlink.com 1.10,2013-06-14 19:45:00,
2013-06-14 16:00:00,91.3,72.0,29.87,WSW,257,6.0,-999.0,53,-99.99,,,0.00,weatherlink.com 1.10,2013-06-14 20:00:00,
2013-06-14 16:15:00,91.6,71.0,29.87,WNW,290,7.0,-999.0,51,-99.99,,,0.00,weatherlink.com 1.10,2013-06-14 20:15:00,
2013-06-14 16:30:00,92.3,70.0,29.86,WNW,284,4.0,-999.0,49,-99.99,,,0.00,weatherlink.com 1.10,2013-06-14 20:30:00,
2013-06-14 16:45:00,92.5,69.0,29.86,West,265,2.0,-999.0,47,-99.99,,,0.00,weatherlink.com 1.10,2013-06-14 20:45:00,
2013-06-14 17:00:00,92.2,72.0,29.84,West,259,3.0,-999.0,51,-99.99,,,0.00,weatherlink.com 1.10,2013-06-14 21:00:00,
2013-06-14 17:15:00,92.3,70.0,29.84,WNW,294,5.0,-999.0,48,-99.99,,,0.00,weatherlink.com 1.10,2013-06-14 21:15:00,
2013-06-14 17:30:00,92.4,71.0,29.84,WSW,254,3.0,-999.0,49,-99.99,,,0.00,weatherlink.com 1.10,2013-06-14 21:30:00,
2013-06-14 17:45:00,91.6,70.0,29.85,WSW,248,4.0,-999.0,49,-99.99,,,0.00,weatherlink.com 1.10,2013-06-14 21:45:00,
2013-06-14 18:00:00,91.8,71.0,29.86,West,273,0.0,-999.0,51,-99.99,,,0.00,weatherlink.com 1.10,2013-06-14 22:00:00,
2013-06-14 18:15:00,91.2,71.0,29.87,SW,229,4.0,-999.0,51,-99.99,,,0.00,weatherlink.com 1.10,2013-06-14 22:15:00,
2013-06-14 18:30:00,90.6,70.0,29.86,WSW,254,0.0,-999.0,51,-99.99,,,0.00,weatherlink.com 1.10,2013-06-14 22:30:00,
2013-06-14 18:45:00,89.7,69.0,29.86,West,259,1.0,-999.0,51,-99.99,,,0.00,weatherlink.com 1.10,2013-06-14 22:45:00,
2013-06-14 19:00:00,89.2,69.0,29.86,West,277,1.0,-999.0,52,-99.99,,,0.00,weatherlink.com 1.10,2013-06-14 23:00:00,
2013-06-14 19:15:00,88.8,69.0,29.86,West,268,3.0,-999.0,53,-99.99,,,0.00,weatherlink.com 1.10,2013-06-14 23:15:00,
2013-06-14 19:30:00,88.4,69.0,29.85,WSW,248,1.0,-999.0,53,-99.99,,,0.00,weatherlink.com 1.10,2013-06-14 23:30:00,
2013-06-14 19:45:00,87.9,70.0,29.86,West,270,4.0,-999.0,56,-99.99,,,0.00,weatherlink.com 1.10,2013-06-14 23:45:00,
2013-06-14 20:00:00,87.2,71.0,29.88,West,267,0.0,-999.0,58,-99.99,,,0.00,weatherlink.com 1.10,2013-06-15 00:00:00,
2013-06-14 20:15:00,86.8,71.0,29.89,West,275,1.0,-999.0,59,-99.99,,,0.00,weatherlink.com 1.10,2013-06-15 00:15:00,
2013-06-14 20:30:00,86.4,71.0,29.89,WSW,251,1.0,-999.0,61,-99.99,,,0.00,weatherlink.com 1.10,2013-06-15 00:30:00,
2013-06-14 20:45:00,86.0,72.0,29.89,West,275,2.0,-999.0,63,-99.99,,,0.00,weatherlink.com 1.10,2013-06-15 00:45:00,
2013-06-14 21:00:00,85.8,72.0,29.90,WSW,258,2.0,-999.0,64,-99.99,,,0.00,weatherlink.com 1.10,2013-06-15 01:00:00,
2013-06-14 21:15:00,85.4,72.0,29.90,West,260,3.0,-999.0,65,-99.99,,,0.00,weatherlink.com 1.10,2013-06-15 01:15:00,
2013-06-14 21:30:00,85.0,72.0,29.90,West,259,0.0,-999.0,66,-99.99,,,0.00,weatherlink.com 1.10,2013-06-15 01:30:00,
2013-06-14 21:45:00,84.7,73.0,29.91,West,261,1.0,-999.0,68,-99.99,,,0.00,weatherlink.com 1.10,2013-06-15 01:45:00,
2013-06-14 22:00:00,84.3,73.0,29.90,West,269,2.0,-999.0,69,-99.99,,,0.00,weatherlink.com 1.10,2013-06-15 02:00:00,
2013-06-14 22:15:00,84.0,73.0,29.90,West,276,0.0,-999.0,70,-99.99,,,0.00,weatherlink.com 1.10,2013-06-15 02:15:00,
2013-06-14 22:30:00,83.7,73.0,29.91,WNW,299,0.0,-999.0,71,-99.99,,,0.00,weatherlink.com 1.10,2013-06-15 02:30:00,
2013-06-14 22:45:00,83.3,73.0,29.92,WNW,302,6.0,-999.0,72,-99.99,,,0.00,weatherlink.com 1.10,2013-06-15 02:45:00,
2013-06-14 23:00:00,83.1,74.0,29.92,West,267,4.0,-999.0,73,-99.99,,,0.00,weatherlink.com 1.10,2013-06-15 03:00:00,
2013-06-14 23:15:00,82.9,74.0,29.92,West,271,5.0,-999.0,75,-99.99,,,0.00,weatherlink.com 1.10,2013-06-15 03:15:00,
2013-06-14 23:30:00,82.7,74.0,29.93,West,259,2.0,-999.0,76,-99.99,,,0.00,weatherlink.com 1.10,2013-06-15 03:30:00,
2013-06-14 23:45:00,82.4,75.0,29.93,West,263,5.0,-999.0,77,-99.99,,,0.00,weatherlink.com 1.10,2013-06-15 03:45:00,